createdAt,value
2018-05-24T00:02:03.897Z,4.03
2018-05-24T00:04:30.330Z,5.40
2018-05-24T00:06:56.663Z,4.67
2018-05-24T00:09:22.968Z,3.87
2018-05-24T00:11:49.292Z,5.40
2018-05-24T00:14:15.687Z,3.90
2018-05-24T00:16:42.064Z,4.03
2018-05-24T00:19:08.451Z,4.20
2018-05-24T00:21:34.908Z,4.13
2018-05-24T00:24:01.313Z,4.23
2018-05-24T00:26:27.701Z,3.70
2018-05-24T00:28:54.085Z,4.53
2018-05-24T00:31:20.410Z,4.77
2018-05-24T00:33:46.718Z,3.70
2018-05-24T00:36:12.998Z,3.50
2018-05-24T00:38:39.352Z,3.50
2018-05-24T00:41:05.648Z,3.37
2018-05-24T00:43:32.008Z,3.53
2018-05-24T00:45:58.350Z,3.80
2018-05-24T00:48:24.705Z,4.33
2018-05-24T00:50:51.056Z,3.97
2018-05-24T00:53:17.449Z,3.47
2018-05-24T00:55:43.727Z,3.20
2018-05-24T00:58:10.014Z,3.80
2018-05-24T01:00:36.345Z,4.07
2018-05-24T01:03:02.769Z,2.70
2018-05-24T01:05:29.217Z,3.33
2018-05-24T01:07:55.626Z,3.17
2018-05-24T01:10:21.949Z,3.10
2018-05-24T01:12:48.488Z,4.03
2018-05-24T01:15:14.906Z,3.57
2018-05-24T01:17:41.204Z,3.47
2018-05-24T01:20:07.564Z,3.17
2018-05-24T01:22:34.017Z,3.47
2018-05-24T01:25:00.413Z,3.17
2018-05-24T01:27:26.744Z,3.23
2018-05-24T01:29:53.026Z,3.00
2018-05-24T01:32:19.487Z,3.43
2018-05-24T01:34:45.768Z,3.23
2018-05-24T01:40:12.384Z,3.33
2018-05-24T01:42:38.845Z,3.60
2018-05-24T01:45:05.120Z,4.23
2018-05-24T01:47:31.419Z,3.20
2018-05-24T01:49:57.751Z,4.50
2018-05-24T01:52:24.156Z,4.00
2018-05-24T01:54:50.485Z,4.60
2018-05-24T01:57:17.056Z,4.07
2018-05-24T01:59:43.442Z,4.60
2018-05-24T02:02:09.984Z,3.80
2018-05-24T02:04:36.482Z,4.40
2018-05-24T02:07:02.857Z,4.13
2018-05-24T02:09:29.241Z,4.50
2018-05-24T02:11:55.657Z,4.00
2018-05-24T02:14:21.987Z,3.90
2018-05-24T02:16:48.350Z,4.60
2018-05-24T02:19:15.144Z,4.00
2018-05-24T02:21:41.557Z,4.53
2018-05-24T02:24:07.829Z,3.90
2018-05-24T02:26:34.129Z,4.07
2018-05-24T02:29:00.442Z,3.90
2018-05-24T02:31:26.750Z,3.80
2018-05-24T02:33:53.176Z,3.97
2018-05-24T02:36:19.494Z,3.70
2018-05-24T02:38:45.841Z,3.70
2018-05-24T02:41:12.168Z,3.43
2018-05-24T02:43:38.500Z,3.70
2018-05-24T02:46:04.842Z,3.10
2018-05-24T02:48:31.325Z,4.03
2018-05-24T02:50:57.646Z,3.40
2018-05-24T02:53:24.630Z,5.00
2018-05-24T02:55:50.954Z,4.00
2018-05-24T02:58:17.240Z,3.83
2018-05-24T03:00:43.624Z,3.43
2018-05-24T03:03:10.012Z,4.03
2018-05-24T03:05:36.457Z,4.37
2018-05-24T03:08:02.873Z,3.23
2018-05-24T03:10:29.197Z,3.83
2018-05-24T03:12:55.509Z,3.70
2018-05-24T03:15:21.815Z,3.90
2018-05-24T03:17:48.191Z,3.90
2018-05-24T03:20:14.578Z,3.87
2018-05-24T03:22:40.937Z,3.43
2018-05-24T03:25:07.274Z,3.70
2018-05-24T03:27:33.605Z,3.40
2018-05-24T03:29:59.930Z,3.20
2018-05-24T03:32:26.365Z,3.50
2018-05-24T03:34:53.294Z,3.27
2018-05-24T03:37:19.860Z,3.50
2018-05-24T03:39:46.225Z,3.63
2018-05-24T03:42:12.680Z,3.90
2018-05-24T03:44:39.162Z,3.60
2018-05-24T03:47:05.620Z,3.87
2018-05-24T03:49:32.071Z,3.50
2018-05-24T03:51:58.467Z,3.27
2018-05-24T03:54:25.127Z,3.30
2018-05-24T03:56:51.455Z,4.23
2018-05-24T04:02:38.968Z,3.30
2018-05-24T04:05:05.363Z,3.30
2018-05-24T04:07:31.623Z,3.93
2018-05-24T04:09:58.140Z,3.33
2018-05-24T04:12:24.482Z,3.33
2018-05-24T04:14:50.777Z,3.50
2018-05-24T04:17:17.225Z,4.00
2018-05-24T04:19:44.024Z,3.73
2018-05-24T04:22:10.659Z,4.30
2018-05-24T04:24:37.011Z,5.13
2018-05-24T04:27:03.384Z,3.67
2018-05-24T04:29:29.759Z,3.80
2018-05-24T04:31:56.207Z,4.20
2018-05-24T04:34:22.515Z,4.27
2018-05-24T04:36:48.917Z,3.53
2018-05-24T04:39:15.297Z,3.97
2018-05-24T04:41:41.799Z,4.03
2018-05-24T04:44:08.591Z,4.07
2018-05-24T04:46:34.926Z,3.70
2018-05-24T04:49:01.372Z,3.43
2018-05-24T04:51:27.709Z,3.37
2018-05-24T04:53:54.089Z,3.67
2018-05-24T04:56:20.806Z,4.03
2018-05-24T04:58:47.401Z,3.60
2018-05-24T05:01:14.026Z,4.03
2018-05-24T05:03:40.449Z,3.70
2018-05-24T05:06:07.578Z,3.47
2018-05-24T05:08:34.067Z,4.57
2018-05-24T05:11:00.490Z,4.33
2018-05-24T05:13:26.958Z,3.70
2018-05-24T05:15:53.553Z,3.60
2018-05-24T05:18:20.179Z,3.57
2018-05-24T05:20:47.172Z,3.43
2018-05-24T05:23:13.944Z,4.20
2018-05-24T05:25:40.413Z,3.63
2018-05-24T05:28:07.055Z,3.67
2018-05-24T05:30:33.539Z,3.93
2018-05-24T05:33:00.053Z,3.90
2018-05-24T05:35:27.204Z,3.67
2018-05-24T05:37:53.634Z,3.13
2018-05-24T05:40:20.221Z,3.37
2018-05-24T05:42:46.669Z,3.03
2018-05-24T05:45:12.987Z,4.47
2018-05-24T05:47:39.409Z,3.43
2018-05-24T05:50:05.860Z,3.47
2018-05-24T05:52:32.402Z,3.53
2018-05-24T05:54:58.819Z,3.43
2018-05-24T05:57:25.969Z,3.40
2018-05-24T05:59:52.402Z,3.90
2018-05-24T06:02:19.308Z,3.43
2018-05-24T06:04:45.873Z,3.40
2018-05-24T06:07:12.350Z,3.50
2018-05-24T06:09:38.741Z,3.03
2018-05-24T06:12:05.232Z,3.77
2018-05-24T06:14:31.941Z,4.03
2018-05-24T06:16:58.242Z,3.33
2018-05-24T06:19:24.822Z,4.20
2018-05-24T06:21:51.477Z,3.37
2018-05-24T06:24:17.941Z,3.87
2018-05-24T06:26:44.461Z,3.83
2018-05-24T06:29:11.136Z,3.40
2018-05-24T06:31:37.680Z,4.43
2018-05-24T06:34:04.444Z,4.70
2018-05-24T06:36:31.406Z,3.77
2018-05-24T06:38:59.541Z,3.70
2018-05-24T06:41:26.214Z,3.50
2018-05-24T06:43:52.983Z,3.90
2018-05-24T06:46:19.537Z,3.83
2018-05-24T06:48:46.422Z,4.47
2018-05-24T06:51:12.938Z,4.87
2018-05-24T06:53:39.916Z,4.73
2018-05-24T06:56:07.132Z,4.43
2018-05-24T06:58:33.555Z,4.13
2018-05-24T07:00:59.969Z,4.80
2018-05-24T07:03:26.633Z,4.13
2018-05-24T07:05:53.228Z,4.03
2018-05-24T07:08:19.568Z,5.00
2018-05-24T07:10:46.054Z,4.20
2018-05-24T07:13:12.474Z,4.90
2018-05-24T07:15:38.919Z,5.47
2018-05-24T07:18:05.311Z,4.50
2018-05-24T07:20:31.735Z,5.37
2018-05-24T07:22:58.089Z,5.33
2018-05-24T07:25:24.513Z,4.90
2018-05-24T07:27:50.933Z,5.47
2018-05-24T07:30:17.249Z,5.40
2018-05-24T07:32:43.647Z,5.97
2018-05-24T07:35:10.275Z,6.03
2018-05-24T07:37:36.710Z,6.30
2018-05-24T07:40:03.195Z,7.30
2018-05-24T07:42:29.602Z,6.20
2018-05-24T07:44:56.130Z,7.10
2018-05-24T07:47:22.669Z,6.63
2018-05-24T07:49:49.053Z,7.67
2018-05-24T07:52:15.590Z,6.47
2018-05-24T07:54:42.077Z,6.80
2018-05-24T07:57:08.704Z,7.13
2018-05-24T07:59:35.174Z,7.50
2018-05-24T08:02:01.616Z,7.33
2018-05-24T08:04:28.283Z,6.20
2018-05-24T08:06:54.697Z,6.47
2018-05-24T08:09:21.032Z,5.63
2018-05-24T08:11:47.407Z,5.63
2018-05-24T08:14:13.738Z,6.03
2018-05-24T08:16:40.010Z,5.80
2018-05-24T08:19:06.377Z,5.90
2018-05-24T08:21:32.797Z,5.20
2018-05-24T08:23:59.287Z,4.83
2018-05-24T08:26:25.801Z,5.50
2018-05-24T08:28:52.259Z,4.90
2018-05-24T08:31:18.643Z,4.97
2018-05-24T08:33:45.006Z,5.13
2018-05-24T08:36:11.438Z,5.93
2018-05-24T08:38:37.885Z,5.80
2018-05-24T08:41:04.341Z,6.20
2018-05-24T08:43:30.721Z,6.50
2018-05-24T08:45:57.079Z,8.40
2018-05-24T08:48:23.433Z,7.47
2018-05-24T08:50:49.864Z,8.03
2018-05-24T08:53:16.855Z,8.30
2018-05-24T08:55:43.229Z,8.87
2018-05-24T08:58:09.690Z,8.67
2018-05-24T09:00:36.094Z,8.97
2018-05-24T09:03:02.455Z,8.20
2018-05-24T09:05:29.004Z,8.37
2018-05-24T09:07:55.471Z,8.73
2018-05-24T09:10:21.962Z,8.53
2018-05-24T09:12:48.515Z,9.10
2018-05-24T09:15:15.083Z,9.20
2018-05-24T09:17:41.557Z,9.60
2018-05-24T09:20:22.058Z,10.10
2018-05-24T09:22:51.542Z,9.60
2018-05-24T09:25:17.992Z,10.40
2018-05-24T09:27:44.385Z,11.47
2018-05-24T09:30:10.872Z,11.70
2018-05-24T09:32:37.270Z,10.90
2018-05-24T09:35:05.100Z,9.90
2018-05-24T09:37:31.547Z,9.77
2018-05-24T09:39:59.465Z,9.27
2018-05-24T09:42:26.769Z,10.23
2018-05-24T09:44:53.224Z,10.40
2018-05-24T09:47:19.649Z,10.37
2018-05-24T09:49:46.119Z,10.77
2018-05-24T09:52:12.550Z,12.77
2018-05-24T09:54:39.130Z,12.07
2018-05-24T09:57:05.598Z,10.37
2018-05-24T09:59:32.103Z,9.80
2018-05-24T10:01:58.557Z,9.27
2018-05-24T10:04:25.056Z,9.53
2018-05-24T10:06:51.547Z,9.77
2018-05-24T10:09:18.111Z,9.97
2018-05-24T10:11:45.290Z,11.60
2018-05-24T10:14:24.005Z,8.50
2018-05-24T10:16:53.792Z,9.13
2018-05-24T10:19:20.334Z,8.90
2018-05-24T10:21:46.898Z,8.80
2018-05-24T10:24:13.475Z,8.83
2018-05-24T10:26:40.070Z,8.17
2018-05-24T10:29:06.734Z,8.27
2018-05-24T10:31:33.422Z,8.20
2018-05-24T10:33:59.827Z,8.10
2018-05-24T10:36:26.278Z,8.40
2018-05-24T10:38:52.929Z,8.60
2018-05-24T10:41:19.349Z,8.37
2018-05-24T10:43:45.758Z,8.93
2018-05-24T10:46:12.326Z,8.47
2018-05-24T10:48:38.933Z,8.53
2018-05-24T10:51:05.770Z,8.77
2018-05-24T10:53:32.785Z,9.13
2018-05-24T10:55:59.637Z,8.70
2018-05-24T10:58:26.347Z,9.40
2018-05-24T11:00:52.955Z,8.33
2018-05-24T11:03:19.636Z,8.67
2018-05-24T11:05:46.252Z,8.87
2018-05-24T11:08:12.841Z,8.50
2018-05-24T11:10:39.387Z,8.43
2018-05-24T11:13:06.526Z,8.00
2018-05-24T11:15:33.273Z,8.03
2018-05-24T11:17:59.867Z,9.57
2018-05-24T11:20:26.429Z,8.30
2018-05-24T11:22:52.971Z,7.57
2018-05-24T11:25:19.454Z,6.90
2018-05-24T11:27:45.785Z,7.63
2018-05-24T11:30:12.245Z,7.40
2018-05-24T11:32:38.688Z,7.80
2018-05-24T11:35:05.073Z,7.40
2018-05-24T11:37:31.444Z,7.17
2018-05-24T11:39:58.008Z,6.53
2018-05-24T11:42:24.856Z,6.83
2018-05-24T11:44:51.497Z,7.57
2018-05-24T11:47:17.985Z,7.30
2018-05-24T11:49:44.501Z,7.13
2018-05-24T11:52:10.969Z,6.63
2018-05-24T11:54:37.400Z,6.30
2018-05-24T11:57:03.866Z,5.83
2018-05-24T11:59:30.242Z,6.33
2018-05-24T12:01:56.663Z,6.93
2018-05-24T12:04:23.032Z,5.40
2018-05-24T12:06:49.441Z,5.87
2018-05-24T12:09:15.899Z,4.87
2018-05-24T12:11:42.342Z,5.23
2018-05-24T12:14:08.947Z,4.60
2018-05-24T12:16:35.537Z,5.67
2018-05-24T12:19:02.085Z,5.33
2018-05-24T12:21:28.599Z,5.77
2018-05-24T12:23:55.335Z,6.00
2018-05-24T12:26:21.893Z,5.50
2018-05-24T12:28:48.455Z,5.53
2018-05-24T12:31:14.968Z,5.50
2018-05-24T12:33:41.467Z,5.77
2018-05-24T12:36:08.161Z,5.03
2018-05-24T12:38:34.678Z,6.10
2018-05-24T12:41:01.137Z,5.90
2018-05-24T12:43:27.602Z,5.90
2018-05-24T12:45:54.087Z,5.27
2018-05-24T12:48:20.605Z,5.83
2018-05-24T12:50:47.298Z,5.73
2018-05-24T12:53:14.066Z,5.40
2018-05-24T12:55:40.619Z,6.00
2018-05-24T12:58:07.100Z,5.33
2018-05-24T13:00:34.264Z,5.20
2018-05-24T13:03:00.813Z,5.33
2018-05-24T13:05:27.270Z,6.17
2018-05-24T13:07:53.835Z,5.40
2018-05-24T13:10:20.364Z,6.80
2018-05-24T13:12:46.815Z,7.43
2018-05-24T13:15:13.334Z,6.40
2018-05-24T13:17:39.900Z,7.07
2018-05-24T13:20:06.327Z,6.40
2018-05-24T13:22:32.711Z,5.80
2018-05-24T13:24:59.471Z,5.73
2018-05-24T13:27:26.374Z,5.97
2018-05-24T13:29:52.832Z,6.03
2018-05-24T13:32:19.571Z,5.37
2018-05-24T13:34:46.076Z,5.70
2018-05-24T13:37:12.517Z,5.27
2018-05-24T13:39:38.904Z,5.43
2018-05-24T13:42:05.776Z,4.83
2018-05-24T13:44:32.440Z,5.30
2018-05-24T13:46:58.990Z,3.63
2018-05-24T13:49:25.450Z,4.57
2018-05-24T13:51:51.964Z,5.57
2018-05-24T13:54:18.488Z,5.07
2018-05-24T13:56:44.862Z,5.70
2018-05-24T13:59:11.255Z,5.17
2018-05-24T14:01:37.923Z,4.47
2018-05-24T14:04:04.266Z,4.50
2018-05-24T14:06:30.698Z,4.40
2018-05-24T14:08:57.080Z,4.97
2018-05-24T14:11:23.497Z,4.90
2018-05-24T14:13:49.951Z,4.80
2018-05-24T14:16:16.417Z,5.60
2018-05-24T14:18:42.853Z,5.80
2018-05-24T14:21:09.418Z,5.13
2018-05-24T14:23:35.817Z,6.07
2018-05-24T14:26:02.326Z,6.03
2018-05-24T14:28:28.826Z,6.10
2018-05-24T14:30:55.343Z,6.30
2018-05-24T14:33:21.947Z,5.63
2018-05-24T14:35:48.433Z,5.30
2018-05-24T14:38:14.943Z,5.97
2018-05-24T14:40:41.591Z,6.27
2018-05-24T14:43:08.265Z,5.87
2018-05-24T14:45:34.923Z,6.87
2018-05-24T14:48:01.510Z,6.80
2018-05-24T14:50:28.133Z,6.93
2018-05-24T14:52:54.536Z,7.10
2018-05-24T14:55:21.030Z,7.37
2018-05-24T14:57:47.438Z,6.80
2018-05-24T15:00:13.893Z,7.47
2018-05-24T15:02:40.383Z,7.13
2018-05-24T15:05:06.770Z,7.23
2018-05-24T15:07:34.505Z,7.63
2018-05-24T15:10:00.922Z,8.10
2018-05-24T15:12:27.510Z,7.20
2018-05-24T15:14:54.205Z,7.27
2018-05-24T15:17:20.619Z,7.33
2018-05-24T15:19:47.034Z,7.90
2018-05-24T15:22:13.445Z,7.63
2018-05-24T15:24:39.846Z,7.23
2018-05-24T15:27:06.297Z,7.63
2018-05-24T15:29:32.689Z,7.77
2018-05-24T15:31:59.170Z,7.67
2018-05-24T15:34:25.821Z,7.60
2018-05-24T15:36:52.423Z,7.27
2018-05-24T15:39:18.895Z,7.00
2018-05-24T15:41:45.320Z,7.93
2018-05-24T15:44:11.757Z,7.30
2018-05-24T15:46:38.349Z,8.37
2018-05-24T15:49:04.729Z,7.53
2018-05-24T15:51:31.240Z,7.30
2018-05-24T15:53:58.064Z,7.70
2018-05-24T15:56:24.683Z,7.53
2018-05-24T15:58:51.227Z,8.07
2018-05-24T16:01:17.801Z,7.70
2018-05-24T16:03:44.252Z,7.80
2018-05-24T16:06:10.805Z,8.13
2018-05-24T16:08:37.441Z,7.73
2018-05-24T16:11:04.288Z,7.63
2018-05-24T16:13:30.966Z,7.67
2018-05-24T16:15:57.385Z,6.50
2018-05-24T16:18:23.789Z,5.63
2018-05-24T16:20:50.249Z,5.97
2018-05-24T16:23:16.710Z,5.07
2018-05-24T16:25:43.174Z,4.63
2018-05-24T16:28:09.579Z,5.40
2018-05-24T16:30:36.014Z,5.03
2018-05-24T16:33:02.893Z,5.27
2018-05-24T16:35:29.479Z,4.97
2018-05-24T16:37:56.027Z,4.87
2018-05-24T16:40:23.272Z,5.13
2018-05-24T16:42:50.084Z,5.00
2018-05-24T16:45:17.551Z,4.97
2018-05-24T16:47:45.701Z,5.10
2018-05-24T16:50:12.403Z,4.03
2018-05-24T16:52:38.918Z,4.93
2018-05-24T16:55:05.555Z,4.57
2018-05-24T16:57:32.134Z,5.17
2018-05-24T16:59:59.367Z,4.10
2018-05-24T17:02:26.358Z,4.53
2018-05-24T17:04:53.260Z,4.57
2018-05-24T17:07:21.814Z,4.80
2018-05-24T17:09:49.645Z,4.43
2018-05-24T17:12:16.588Z,4.80
2018-05-24T17:14:48.913Z,4.67
2018-05-24T17:17:15.991Z,4.40
2018-05-24T17:19:42.842Z,5.27
2018-05-24T17:22:10.256Z,4.70
2018-05-24T17:24:37.090Z,4.67
2018-05-24T17:27:04.375Z,3.60
2018-05-24T17:29:31.209Z,4.33
2018-05-24T17:31:58.212Z,4.23
2018-05-24T17:34:24.892Z,4.33
2018-05-24T17:36:51.426Z,4.50
2018-05-24T17:39:18.343Z,4.43
2018-05-24T17:41:45.154Z,4.63
2018-05-24T17:44:12.017Z,4.30
2018-05-24T17:46:38.839Z,5.80
2018-05-24T17:49:06.320Z,4.03
2018-05-24T17:51:33.270Z,4.67
2018-05-24T17:53:59.879Z,4.47
2018-05-24T17:56:26.512Z,4.50
2018-05-24T17:58:53.249Z,4.67
2018-05-24T18:01:19.979Z,4.03
2018-05-24T18:03:46.595Z,4.07
2018-05-24T18:06:13.080Z,4.23
2018-05-24T18:08:39.535Z,5.17
2018-05-24T18:11:06.069Z,5.03
2018-05-24T18:13:32.769Z,4.30
2018-05-24T18:15:59.723Z,4.30
2018-05-24T18:18:26.362Z,4.97
2018-05-24T18:20:52.962Z,5.10
2018-05-24T18:23:19.449Z,5.07
2018-05-24T18:25:46.050Z,4.83
2018-05-24T18:28:12.532Z,4.33
2018-05-24T18:30:39.377Z,5.00
2018-05-24T18:33:06.188Z,4.80
2018-05-24T18:35:33.625Z,4.47
2018-05-24T18:38:00.116Z,5.67
2018-05-24T18:40:27.137Z,4.67
2018-05-24T18:42:53.791Z,4.10
2018-05-24T18:45:20.529Z,4.60
2018-05-24T18:47:47.214Z,5.30
2018-05-24T18:50:13.658Z,3.90
2018-05-24T18:52:40.690Z,4.63
2018-05-24T18:55:07.455Z,5.13
2018-05-24T18:57:36.542Z,4.90
2018-05-24T19:00:03.424Z,5.10
2018-05-24T19:02:30.563Z,4.27
2018-05-24T19:04:58.160Z,5.27
2018-05-24T19:07:24.786Z,4.87
2018-05-24T19:09:51.367Z,4.70
2018-05-24T19:12:18.117Z,4.27
2018-05-24T19:14:44.637Z,4.90
2018-05-24T19:17:11.066Z,4.70
2018-05-24T19:19:37.579Z,4.47
2018-05-24T19:22:05.380Z,4.33
2018-05-24T19:24:32.124Z,4.87
2018-05-24T19:26:59.361Z,5.13
2018-05-24T19:29:26.061Z,5.17
2018-05-24T19:31:52.662Z,5.37
2018-05-24T19:34:19.237Z,4.90
2018-05-24T19:36:45.681Z,4.80
2018-05-24T19:39:12.161Z,4.70
2018-05-24T19:41:38.615Z,4.73
2018-05-24T19:44:05.353Z,5.27
2018-05-24T19:46:31.896Z,4.93
2018-05-24T19:48:58.432Z,5.77
2018-05-24T19:51:25.361Z,6.10
2018-05-24T19:53:52.167Z,5.57
2018-05-24T19:56:18.648Z,4.70
2018-05-24T19:58:45.493Z,5.17
2018-05-24T20:01:12.224Z,4.60
2018-05-24T20:03:39.031Z,4.90
2018-05-24T20:06:05.870Z,4.53
2018-05-24T20:08:32.503Z,4.73
2018-05-24T20:10:59.408Z,5.03
2018-05-24T20:13:26.356Z,5.03
2018-05-24T20:15:53.005Z,5.07
2018-05-24T20:18:19.452Z,4.97
2018-05-24T20:20:45.940Z,5.23
2018-05-24T20:23:12.687Z,5.07
2018-05-24T20:25:39.366Z,4.97
2018-05-24T20:28:05.811Z,4.83
2018-05-24T20:30:32.354Z,5.43
2018-05-24T20:32:59.078Z,6.17
2018-05-24T20:35:25.477Z,5.07
2018-05-24T20:37:52.004Z,4.80
2018-05-24T20:40:18.904Z,4.80
2018-05-24T20:42:45.927Z,5.33
2018-05-24T20:45:12.636Z,5.57
2018-05-24T20:47:39.285Z,4.73
2018-05-24T20:50:05.734Z,5.40
2018-05-24T20:52:32.300Z,5.00
2018-05-24T20:54:58.825Z,5.10
2018-05-24T20:57:25.381Z,5.07
2018-05-24T20:59:52.219Z,5.37
2018-05-24T21:02:18.680Z,4.43
2018-05-24T21:04:45.360Z,4.87
2018-05-24T21:07:12.010Z,5.00
2018-05-24T21:09:38.387Z,5.27
2018-05-24T21:12:04.973Z,5.50
2018-05-24T21:14:31.669Z,4.43
2018-05-24T21:16:58.231Z,5.60
2018-05-24T21:19:24.740Z,5.07
2018-05-24T21:21:51.318Z,4.67
2018-05-24T21:24:18.612Z,5.13
2018-05-24T21:26:45.356Z,5.00
2018-05-24T21:29:12.247Z,5.10
2018-05-24T21:31:38.736Z,4.80
2018-05-24T21:34:05.164Z,5.57
2018-05-24T21:36:32.086Z,4.97
2018-05-24T21:38:58.528Z,4.53
2018-05-24T21:41:24.999Z,4.90
2018-05-24T21:43:52.354Z,5.27
2018-05-24T21:46:19.081Z,5.03
2018-05-24T21:48:45.798Z,4.47
2018-05-24T21:51:12.608Z,4.97
2018-05-24T21:53:39.426Z,4.83
2018-05-24T21:56:05.872Z,5.67
2018-05-24T21:58:32.284Z,4.80
2018-05-24T22:00:58.737Z,5.13
2018-05-24T22:03:25.278Z,5.13
2018-05-24T22:05:51.808Z,4.93
2018-05-24T22:08:18.258Z,5.67
2018-05-24T22:10:44.661Z,4.80
2018-05-24T22:13:11.126Z,5.60
2018-05-24T22:15:37.658Z,4.60
2018-05-24T22:18:04.112Z,4.80
2018-05-24T22:20:30.649Z,5.30
2018-05-24T22:22:57.164Z,5.33
2018-05-24T22:25:23.505Z,4.83
2018-05-24T22:27:49.914Z,5.43
2018-05-24T22:30:16.298Z,5.40
2018-05-24T22:32:42.809Z,5.43
2018-05-24T22:35:09.363Z,5.73
2018-05-24T22:37:35.858Z,5.57
2018-05-24T22:40:02.796Z,5.83
2018-05-24T22:42:29.253Z,5.27
2018-05-24T22:44:55.687Z,4.87
2018-05-24T22:47:22.057Z,5.53
2018-05-24T22:49:48.474Z,5.13
2018-05-24T22:52:14.925Z,5.20
2018-05-24T22:54:41.392Z,5.20
2018-05-24T22:57:07.879Z,5.97
2018-05-24T22:59:34.396Z,5.87
2018-05-24T23:02:00.889Z,6.63
2018-05-24T23:04:27.474Z,5.87
2018-05-24T23:06:53.904Z,5.93
2018-05-24T23:09:20.393Z,6.17
2018-05-24T23:11:46.926Z,5.90
2018-05-24T23:14:13.456Z,5.50
2018-05-24T23:16:40.007Z,5.27
2018-05-24T23:19:06.421Z,5.57
2018-05-24T23:21:32.958Z,4.87
2018-05-24T23:23:59.409Z,5.00
2018-05-24T23:26:25.829Z,5.57
2018-05-24T23:28:52.231Z,5.57
2018-05-24T23:31:18.769Z,5.40
2018-05-24T23:33:45.406Z,5.07
2018-05-24T23:36:12.002Z,4.77
2018-05-24T23:38:38.416Z,6.47
2018-05-24T23:41:05.005Z,5.73
2018-05-24T23:43:31.483Z,5.33
2018-05-24T23:45:57.913Z,5.83
2018-05-24T23:48:24.508Z,5.97
2018-05-24T23:50:50.915Z,4.37
2018-05-24T23:53:17.349Z,4.93
2018-05-24T23:55:43.777Z,5.37
2018-05-24T23:58:10.361Z,5.40
